createdAt,value
2023-05-25T00:01:02.017Z,48.83
2023-05-25T00:03:31.473Z,48.71
2023-05-25T00:05:59.001Z,48.83
2023-05-25T00:08:25.501Z,48.97
2023-05-25T00:10:51.969Z,48.64
2023-05-25T00:13:18.470Z,48.90
2023-05-25T00:15:45.410Z,49.01
2023-05-25T00:18:13.095Z,48.75
2023-05-25T00:20:39.970Z,48.55
2023-05-25T00:23:06.397Z,48.74
2023-05-25T00:25:32.774Z,48.51
2023-05-25T00:27:59.125Z,48.83
2023-05-25T00:30:25.760Z,48.33
2023-05-25T00:32:53.999Z,48.25
2023-05-25T00:35:20.824Z,48.46
2023-05-25T00:37:47.621Z,48.11
2023-05-25T00:40:18.833Z,48.41
2023-05-25T00:42:47.992Z,48.10
2023-05-25T00:45:14.629Z,48.50
2023-05-25T00:47:41.513Z,48.38
2023-05-25T00:50:09.701Z,48.25
2023-05-25T00:52:36.436Z,48.28
2023-05-25T00:55:03.523Z,48.19
2023-05-25T00:57:34.094Z,48.25
2023-05-25T01:00:02.245Z,48.35
2023-05-25T01:02:29.208Z,48.04
2023-05-25T01:04:59.833Z,48.60
2023-05-25T01:07:27.979Z,48.35
2023-05-25T01:09:58.640Z,48.61
2023-05-25T01:12:35.221Z,48.33
2023-05-25T01:15:04.523Z,48.25
2023-05-25T01:17:30.954Z,48.15
2023-05-25T01:22:34.112Z,48.57
2023-05-25T01:25:07.186Z,48.52
2023-05-25T01:27:43.591Z,48.88
2023-05-25T01:30:13.991Z,48.92
2023-05-25T01:32:42.721Z,48.61
2023-05-25T01:35:10.048Z,48.54
2023-05-25T01:37:37.661Z,48.25
2023-05-25T01:40:08.493Z,48.24
2023-05-25T01:42:34.978Z,48.82
2023-05-25T01:45:01.716Z,48.22
2023-05-25T01:47:37.473Z,49.01
2023-05-25T01:50:29.456Z,48.99
2023-05-25T01:53:15.622Z,49.22
2023-05-25T01:55:54.888Z,48.90
2023-05-25T01:58:23.338Z,48.89
2023-05-25T02:00:51.525Z,48.71
2023-05-25T02:03:18.692Z,48.56
2023-05-25T02:05:46.365Z,48.78
2023-05-25T02:08:13.088Z,48.83
2023-05-25T02:10:39.539Z,48.78
2023-05-25T02:13:06.038Z,48.71
2023-05-25T02:15:33.821Z,49.01
2023-05-25T02:18:00.768Z,48.79
2023-05-25T02:20:28.425Z,48.95
2023-05-25T02:22:55.210Z,48.66
2023-05-25T02:25:21.645Z,49.16
2023-05-25T02:27:48.296Z,48.75
2023-05-25T02:30:15.064Z,48.49
2023-05-25T02:32:41.754Z,48.76
2023-05-25T02:35:08.519Z,49.14
2023-05-25T02:37:35.331Z,49.12
2023-05-25T02:40:01.838Z,48.84
2023-05-25T02:42:28.471Z,48.78
2023-05-25T02:44:54.885Z,48.58
2023-05-25T02:47:21.778Z,48.61
2023-05-25T02:49:48.457Z,48.86
2023-05-25T02:52:14.817Z,48.54
2023-05-25T02:54:41.915Z,48.88
2023-05-25T02:57:08.650Z,48.88
2023-05-25T02:59:35.138Z,48.70
2023-05-25T03:02:01.527Z,48.80
2023-05-25T03:04:28.499Z,48.85
2023-05-25T03:06:54.877Z,48.92
2023-05-25T03:09:21.565Z,48.96
2023-05-25T03:11:48.257Z,48.98
2023-05-25T03:14:14.714Z,48.97
2023-05-25T03:16:42.684Z,48.96
2023-05-25T03:19:10.585Z,48.97
2023-05-25T03:21:37.797Z,48.85
2023-05-25T03:24:05.550Z,48.94
2023-05-25T03:26:32.187Z,48.76
2023-05-25T03:28:58.805Z,48.72
2023-05-25T03:31:26.475Z,48.85
2023-05-25T03:33:53.099Z,49.04
2023-05-25T03:36:19.775Z,49.38
2023-05-25T03:38:46.700Z,49.18
2023-05-25T03:41:13.326Z,48.94
2023-05-25T03:43:39.976Z,48.74
2023-05-25T03:46:08.796Z,48.81
2023-05-25T03:48:35.420Z,48.92
2023-05-25T03:51:01.809Z,48.80
2023-05-25T03:53:28.405Z,49.24
2023-05-25T03:55:55.104Z,49.29
2023-05-25T03:58:22.529Z,49.40
2023-05-25T04:00:52.638Z,49.37
2023-05-25T04:03:21.129Z,49.27
2023-05-25T04:05:47.971Z,49.80
2023-05-25T04:08:18.012Z,49.35
2023-05-25T04:10:46.129Z,49.87
2023-05-25T04:13:14.440Z,49.60
2023-05-25T04:15:41.149Z,49.86
2023-05-25T04:18:07.685Z,49.89
2023-05-25T04:20:34.361Z,50.16
2023-05-25T04:23:00.854Z,50.03
2023-05-25T04:25:29.535Z,50.02
2023-05-25T04:27:56.903Z,50.24
2023-05-25T04:30:23.658Z,50.10
2023-05-25T04:32:50.439Z,50.23
2023-05-25T04:35:17.098Z,50.41
2023-05-25T04:37:43.576Z,50.19
2023-05-25T04:40:14.431Z,50.48
2023-05-25T04:42:41.877Z,50.41
2023-05-25T04:45:10.256Z,50.32
2023-05-25T04:47:37.753Z,50.55
2023-05-25T04:50:04.415Z,50.27
2023-05-25T04:52:30.756Z,50.19
2023-05-25T04:54:59.427Z,50.36
2023-05-25T04:57:28.613Z,50.35
2023-05-25T04:59:55.109Z,50.46
2023-05-25T05:02:21.795Z,50.51
2023-05-25T05:04:48.477Z,50.45
2023-05-25T05:07:14.938Z,50.26
2023-05-25T05:09:44.260Z,50.35
2023-05-25T05:12:12.079Z,50.23
2023-05-25T05:14:38.866Z,50.42
2023-05-25T05:17:05.626Z,50.30
2023-05-25T05:19:33.232Z,50.10
2023-05-25T05:22:01.374Z,49.91
2023-05-25T05:24:30.499Z,49.79
2023-05-25T05:26:58.969Z,49.78
2023-05-25T05:29:27.037Z,49.48
2023-05-25T05:31:55.590Z,49.89
2023-05-25T05:34:22.096Z,50.03
2023-05-25T05:36:57.313Z,50.14
2023-05-25T05:39:27.315Z,50.07
2023-05-25T05:41:54.273Z,49.97
2023-05-25T05:44:21.587Z,50.14
2023-05-25T05:46:48.390Z,49.95
2023-05-25T05:49:15.760Z,49.82
2023-05-25T05:51:42.402Z,50.07
2023-05-25T05:54:08.864Z,49.78
2023-05-25T05:56:37.028Z,49.78
2023-05-25T05:59:05.342Z,49.45
2023-05-25T06:01:34.843Z,49.66
2023-05-25T06:04:01.483Z,49.26
2023-05-25T06:06:28.566Z,49.76
2023-05-25T06:08:55.376Z,49.49
2023-05-25T06:11:22.046Z,49.20
2023-05-25T06:13:48.729Z,48.63
2023-05-25T06:16:15.298Z,48.54
2023-05-25T06:18:41.838Z,48.94
2023-05-25T06:21:08.655Z,49.02
2023-05-25T06:23:35.825Z,48.76
2023-05-25T06:26:06.366Z,49.14
2023-05-25T06:28:34.917Z,48.86
2023-05-25T06:31:02.292Z,48.78
2023-05-25T06:33:28.748Z,49.09
2023-05-25T06:35:58.270Z,48.86
2023-05-25T06:38:24.881Z,48.80
2023-05-25T06:40:51.312Z,48.98
2023-05-25T06:43:19.187Z,48.31
2023-05-25T06:45:46.312Z,48.78
2023-05-25T06:48:12.968Z,48.46
2023-05-25T06:50:40.271Z,48.06
2023-05-25T06:53:06.782Z,48.13
2023-05-25T06:55:33.399Z,48.08
2023-05-25T06:58:00.091Z,48.09
2023-05-25T07:00:26.926Z,48.23
2023-05-25T07:02:53.880Z,48.38
2023-05-25T07:05:20.837Z,48.38
2023-05-25T07:07:48.676Z,48.00
2023-05-25T07:10:15.227Z,47.83
2023-05-25T07:12:41.712Z,47.80
2023-05-25T07:15:08.810Z,47.31
2023-05-25T07:17:36.672Z,47.45
2023-05-25T07:20:04.676Z,48.04
2023-05-25T07:22:32.454Z,47.61
2023-05-25T07:24:59.178Z,47.34
2023-05-25T07:27:26.153Z,47.68
2023-05-25T07:29:52.570Z,47.44
2023-05-25T07:32:19.301Z,47.18
2023-05-25T07:34:45.685Z,47.26
2023-05-25T07:37:12.107Z,47.47
2023-05-25T07:39:40.687Z,46.93
2023-05-25T07:42:07.029Z,47.25
2023-05-25T07:44:33.875Z,47.06
2023-05-25T07:47:00.392Z,47.09
2023-05-25T07:49:28.401Z,47.05
2023-05-25T07:51:55.137Z,46.95
2023-05-25T07:54:21.942Z,47.09
2023-05-25T07:56:48.367Z,47.51
2023-05-25T07:59:14.811Z,47.29
2023-05-25T08:01:41.334Z,47.00
2023-05-25T08:04:08.135Z,46.67
2023-05-25T08:06:34.676Z,46.44
2023-05-25T08:09:02.960Z,46.57
2023-05-25T08:11:29.454Z,46.65
2023-05-25T08:13:55.990Z,46.80
2023-05-25T08:16:24.752Z,46.60
2023-05-25T08:18:51.668Z,46.51
2023-05-25T08:21:18.629Z,46.29
2023-05-25T08:23:45.297Z,46.59
2023-05-25T08:26:29.064Z,46.39
2023-05-25T08:28:58.724Z,46.42
2023-05-25T08:31:25.171Z,46.12
2023-05-25T08:33:52.926Z,46.39
2023-05-25T08:36:19.699Z,46.04
2023-05-25T08:38:46.311Z,46.20
2023-05-25T08:41:13.276Z,46.47
2023-05-25T08:43:41.778Z,46.36
2023-05-25T08:46:09.082Z,46.35
2023-05-25T08:48:41.654Z,46.23
2023-05-25T08:51:11.657Z,45.95
2023-05-25T08:53:40.669Z,45.84
2023-05-25T08:56:13.711Z,45.58
2023-05-25T08:58:46.353Z,45.83
2023-05-25T09:01:18.483Z,45.26
2023-05-25T09:03:46.673Z,45.87
2023-05-25T09:06:14.150Z,45.90
2023-05-25T09:08:41.047Z,45.63
2023-05-25T09:11:08.054Z,45.62
2023-05-25T09:13:35.565Z,45.74
2023-05-25T09:16:02.247Z,45.61
2023-05-25T09:18:28.765Z,45.43
2023-05-25T09:20:55.849Z,45.46
2023-05-25T09:23:24.014Z,45.33
2023-05-25T09:25:51.543Z,45.50
2023-05-25T09:30:53.219Z,45.59
2023-05-25T09:33:20.207Z,45.48
2023-05-25T09:35:49.166Z,45.25
2023-05-25T09:38:17.044Z,45.00
2023-05-25T09:40:44.955Z,45.56
2023-05-25T09:43:17.215Z,45.20
2023-05-25T09:45:52.358Z,45.10
2023-05-25T09:48:23.392Z,44.72
2023-05-25T09:50:51.404Z,44.61
2023-05-25T09:53:18.906Z,44.61
2023-05-25T09:55:53.729Z,44.25
2023-05-25T09:58:24.942Z,44.30
2023-05-25T10:00:54.613Z,44.35
2023-05-25T10:03:21.670Z,44.64
2023-05-25T10:05:48.628Z,44.77
2023-05-25T10:08:17.774Z,44.57
2023-05-25T10:10:45.578Z,44.80
2023-05-25T10:13:13.783Z,44.78
2023-05-25T10:15:43.144Z,44.53
2023-05-25T10:18:12.239Z,44.50
2023-05-25T10:20:38.878Z,44.35
2023-05-25T10:23:10.754Z,44.03
2023-05-25T10:25:44.833Z,44.16
2023-05-25T10:28:18.373Z,44.95
2023-05-25T10:30:45.575Z,44.21
2023-05-25T10:33:12.622Z,44.61
2023-05-25T10:36:01.538Z,43.84
2023-05-25T10:38:31.474Z,44.39
2023-05-25T10:40:59.220Z,44.78
2023-05-25T10:43:27.919Z,44.09
2023-05-25T10:45:56.907Z,43.55
2023-05-25T10:48:34.942Z,43.47
2023-05-25T10:51:01.572Z,44.07
2023-05-25T10:53:29.358Z,44.20
2023-05-25T10:56:22.388Z,43.14
2023-05-25T10:58:49.172Z,43.36
2023-05-25T11:01:16.135Z,43.10
2023-05-25T11:03:50.267Z,42.89
2023-05-25T11:06:22.147Z,42.80
2023-05-25T11:08:56.455Z,43.30
2023-05-25T11:11:49.771Z,43.24
2023-05-25T11:14:30.544Z,42.97
2023-05-25T11:17:18.723Z,43.36
2023-05-25T11:19:53.635Z,43.37
2023-05-25T11:22:31.241Z,43.12
2023-05-25T11:24:59.864Z,43.35
2023-05-25T11:27:33.246Z,43.62
2023-05-25T11:30:00.516Z,43.44
2023-05-25T11:32:28.775Z,43.20
2023-05-25T11:34:58.137Z,43.08
2023-05-25T11:37:29.470Z,42.86
2023-05-25T11:39:55.962Z,43.16
2023-05-25T11:42:24.324Z,42.75
2023-05-25T11:44:51.332Z,42.62
2023-05-25T11:47:22.982Z,42.28
2023-05-25T11:49:50.244Z,42.43
2023-05-25T11:52:19.273Z,42.28
2023-05-25T11:54:46.391Z,42.17
2023-05-25T11:57:26.313Z,42.20
2023-05-25T11:59:54.446Z,42.46
2023-05-25T12:02:22.201Z,42.50
2023-05-25T12:05:04.678Z,42.01
2023-05-25T12:07:32.021Z,41.95
2023-05-25T12:10:09.879Z,41.84
2023-05-25T12:12:47.530Z,41.91
2023-05-25T12:15:22.311Z,42.31
2023-05-25T12:17:49.325Z,42.29
2023-05-25T12:20:17.490Z,42.48
2023-05-25T12:22:47.091Z,42.21
2023-05-25T12:25:16.465Z,42.34
2023-05-25T12:27:44.812Z,42.04
2023-05-25T12:30:11.733Z,41.98
2023-05-25T12:32:55.117Z,41.64
2023-05-25T12:35:21.892Z,42.00
2023-05-25T12:37:48.313Z,42.21
2023-05-25T12:40:20.567Z,41.87
2023-05-25T12:42:56.606Z,41.90
2023-05-25T12:45:23.620Z,42.33
2023-05-25T12:47:50.383Z,42.58
2023-05-25T12:50:17.979Z,41.85
2023-05-25T12:52:46.555Z,41.86
2023-05-25T12:55:25.982Z,41.89
2023-05-25T12:58:06.928Z,41.37
2023-05-25T13:00:41.387Z,41.92
2023-05-25T13:03:09.452Z,41.70
2023-05-25T13:05:37.510Z,41.93
2023-05-25T13:08:05.526Z,41.95
2023-05-25T13:10:36.679Z,42.03
2023-05-25T13:13:04.434Z,41.21
2023-05-25T13:15:30.914Z,41.18
2023-05-25T13:18:00.353Z,41.03
2023-05-25T13:20:31.293Z,40.59
2023-05-25T13:22:58.368Z,40.58
2023-05-25T13:25:28.118Z,40.22
2023-05-25T13:27:55.987Z,40.86
2023-05-25T13:30:23.133Z,40.95
2023-05-25T13:32:51.839Z,40.92
2023-05-25T13:35:23.930Z,40.74
2023-05-25T13:37:51.255Z,40.38
2023-05-25T13:40:18.456Z,40.49
2023-05-25T13:42:45.187Z,40.21
2023-05-25T13:45:11.901Z,40.39
2023-05-25T13:47:39.226Z,40.18
2023-05-25T13:50:07.296Z,40.29
2023-05-25T13:52:36.660Z,40.14
2023-05-25T13:55:03.295Z,40.24
2023-05-25T13:57:29.673Z,40.50
2023-05-25T13:59:56.221Z,39.85
2023-05-25T14:02:22.722Z,40.02
2023-05-25T14:04:49.360Z,40.00
2023-05-25T14:07:15.856Z,40.11
2023-05-25T14:09:42.427Z,40.08
2023-05-25T14:12:09.225Z,40.41
2023-05-25T14:14:35.657Z,40.07
2023-05-25T14:17:02.118Z,40.21
2023-05-25T14:19:29.803Z,39.86
2023-05-25T14:22:11.694Z,39.88
2023-05-25T14:24:39.699Z,39.59
2023-05-25T14:27:07.298Z,39.57
2023-05-25T14:29:34.016Z,39.69
2023-05-25T14:32:00.937Z,39.67
2023-05-25T14:34:27.880Z,39.92
2023-05-25T14:36:55.907Z,40.00
2023-05-25T14:39:22.464Z,39.59
2023-05-25T14:41:50.206Z,39.75
2023-05-25T14:44:16.837Z,39.76
2023-05-25T14:46:43.621Z,39.63
2023-05-25T14:49:14.223Z,39.50
2023-05-25T14:51:40.596Z,39.58
2023-05-25T14:54:08.314Z,39.69
2023-05-25T14:56:37.592Z,39.24
2023-05-25T14:59:04.058Z,39.28
2023-05-25T15:01:32.308Z,39.00
2023-05-25T15:03:58.945Z,39.21
2023-05-25T15:06:25.457Z,38.96
2023-05-25T15:08:52.076Z,38.64
2023-05-25T15:11:18.857Z,38.69
2023-05-25T15:13:46.149Z,38.93
2023-05-25T15:16:14.007Z,38.88
2023-05-25T15:18:40.533Z,38.88
2023-05-25T15:21:08.518Z,38.37
2023-05-25T15:23:35.060Z,38.43
2023-05-25T15:26:04.359Z,38.82
2023-05-25T15:28:31.425Z,39.05
2023-05-25T15:31:02.789Z,38.97
2023-05-25T15:33:47.141Z,38.88
2023-05-25T15:36:16.480Z,38.88
2023-05-25T15:38:45.849Z,38.87
2023-05-25T15:41:15.021Z,38.55
2023-05-25T15:43:44.179Z,38.40
2023-05-25T15:46:11.963Z,38.57
2023-05-25T15:48:39.186Z,38.87
2023-05-25T15:51:05.649Z,39.08
2023-05-25T15:53:33.525Z,38.84
2023-05-25T15:55:59.946Z,38.96
2023-05-25T15:58:26.353Z,38.89
2023-05-25T16:00:53.827Z,38.98
2023-05-25T16:03:20.267Z,39.12
2023-05-25T16:05:46.858Z,39.31
2023-05-25T16:08:14.238Z,39.51
2023-05-25T16:10:40.688Z,39.15
2023-05-25T16:13:07.361Z,39.07
2023-05-25T16:15:34.311Z,39.08
2023-05-25T16:18:01.448Z,39.12
2023-05-25T16:20:27.998Z,38.88
2023-05-25T16:22:54.779Z,38.66
2023-05-25T16:25:21.497Z,38.63
2023-05-25T16:27:47.850Z,38.47
2023-05-25T16:30:14.651Z,38.07
2023-05-25T16:32:41.372Z,37.78
2023-05-25T16:35:09.304Z,38.10
2023-05-25T16:37:36.085Z,38.00
2023-05-25T16:40:02.634Z,38.34
2023-05-25T16:42:33.352Z,38.49
2023-05-25T16:44:59.723Z,38.33
2023-05-25T16:47:26.131Z,38.40
2023-05-25T16:49:52.750Z,38.25
2023-05-25T16:52:19.115Z,38.20
2023-05-25T16:54:45.617Z,38.26
2023-05-25T16:57:12.158Z,38.20
2023-05-25T16:59:39.561Z,38.30
2023-05-25T17:02:06.611Z,38.34
2023-05-25T17:04:33.046Z,38.18
2023-05-25T17:06:59.513Z,38.15
2023-05-25T17:09:27.277Z,38.13
2023-05-25T17:11:54.186Z,38.14
2023-05-25T17:14:20.751Z,37.78
2023-05-25T17:16:47.388Z,38.13
2023-05-25T17:19:15.208Z,38.01
2023-05-25T17:21:41.947Z,38.24
2023-05-25T17:24:08.488Z,38.11
2023-05-25T17:26:35.214Z,37.87
2023-05-25T17:29:03.139Z,38.03
2023-05-25T17:31:30.258Z,38.10
2023-05-25T17:33:56.813Z,38.12
2023-05-25T17:36:23.530Z,38.01
2023-05-25T17:38:50.186Z,37.73
2023-05-25T17:41:17.210Z,37.45
2023-05-25T17:43:46.259Z,37.45
2023-05-25T17:46:12.749Z,37.51
2023-05-25T17:48:39.591Z,37.61
2023-05-25T17:51:06.043Z,37.50
2023-05-25T17:53:32.695Z,37.51
2023-05-25T17:56:01.538Z,37.79
2023-05-25T17:58:27.913Z,37.92
2023-05-25T18:00:54.384Z,37.61
2023-05-25T18:03:22.341Z,38.13
2023-05-25T18:05:48.789Z,38.19
2023-05-25T18:08:15.775Z,38.20
2023-05-25T18:10:42.411Z,38.73
2023-05-25T18:13:09.915Z,38.59
2023-05-25T18:15:36.349Z,38.79
2023-05-25T18:18:05.821Z,38.96
2023-05-25T18:20:32.657Z,38.95
2023-05-25T18:23:00.663Z,38.67
2023-05-25T18:25:27.366Z,38.96
2023-05-25T18:27:53.757Z,39.01
2023-05-25T18:30:20.253Z,39.14
2023-05-25T18:32:47.033Z,39.06
2023-05-25T18:35:14.574Z,39.19
2023-05-25T18:37:41.145Z,39.42
2023-05-25T18:40:08.460Z,39.30
2023-05-25T18:42:35.309Z,39.68
2023-05-25T18:45:01.948Z,39.68
2023-05-25T18:47:28.420Z,39.75
2023-05-25T18:49:54.954Z,39.87
2023-05-25T18:52:22.548Z,39.64
2023-05-25T18:54:49.587Z,40.15
2023-05-25T18:57:17.785Z,40.13
2023-05-25T18:59:45.655Z,40.03
2023-05-25T19:02:12.317Z,40.12
2023-05-25T19:04:39.084Z,40.10
2023-05-25T19:07:05.474Z,39.96
2023-05-25T19:09:31.891Z,40.09
2023-05-25T19:11:58.338Z,40.14
2023-05-25T19:14:26.205Z,40.27
2023-05-25T19:16:52.732Z,40.53
2023-05-25T19:19:19.213Z,40.60
2023-05-25T19:21:45.921Z,40.83
2023-05-25T19:24:12.945Z,40.92
2023-05-25T19:26:39.384Z,41.01
2023-05-25T19:29:06.931Z,40.87
2023-05-25T19:31:34.899Z,41.24
2023-05-25T19:34:01.444Z,41.24
2023-05-25T19:36:28.241Z,41.25
2023-05-25T19:38:54.855Z,41.42
2023-05-25T19:41:21.261Z,41.60
2023-05-25T19:43:47.938Z,41.64
2023-05-25T19:46:15.593Z,42.08
2023-05-25T19:48:42.553Z,41.96
2023-05-25T19:51:09.003Z,42.05
2023-05-25T19:53:36.824Z,42.26
2023-05-25T19:56:03.447Z,42.34
2023-05-25T19:58:29.870Z,42.51
2023-05-25T20:00:57.558Z,42.51
2023-05-25T20:03:24.149Z,42.67
2023-05-25T20:05:50.721Z,42.74
2023-05-25T20:08:17.470Z,42.80
2023-05-25T20:10:45.067Z,42.91
2023-05-25T20:13:12.493Z,42.98
2023-05-25T20:15:39.175Z,43.18
2023-05-25T20:18:07.735Z,43.03
2023-05-25T20:20:34.458Z,43.12
2023-05-25T20:23:01.464Z,43.12
2023-05-25T20:25:28.741Z,43.13
2023-05-25T20:27:55.476Z,43.30
2023-05-25T20:30:22.056Z,43.37
2023-05-25T20:32:49.346Z,43.46
2023-05-25T20:35:30.106Z,43.64
2023-05-25T20:37:56.809Z,43.54
2023-05-25T20:40:23.178Z,43.54
2023-05-25T20:42:49.588Z,43.51
2023-05-25T20:45:16.362Z,43.64
2023-05-25T20:47:42.843Z,43.87
2023-05-25T20:50:09.512Z,43.84
2023-05-25T20:52:36.268Z,43.77
2023-05-25T20:55:02.754Z,43.84
2023-05-25T20:57:30.020Z,43.79
2023-05-25T20:59:59.674Z,43.87
2023-05-25T21:02:28.303Z,43.41
2023-05-25T21:04:54.888Z,43.33
2023-05-25T21:07:21.786Z,42.86
2023-05-25T21:09:48.411Z,42.94
2023-05-25T21:12:14.933Z,42.93
2023-05-25T21:14:43.881Z,42.45
2023-05-25T21:17:10.662Z,42.66
2023-05-25T21:19:37.976Z,42.56
2023-05-25T21:22:04.770Z,42.65
2023-05-25T21:24:32.342Z,42.60
2023-05-25T21:26:58.701Z,42.48
2023-05-25T21:29:25.078Z,42.61
2023-05-25T21:31:52.603Z,42.28
2023-05-25T21:34:19.138Z,42.33
2023-05-25T21:36:45.797Z,42.09
2023-05-25T21:39:12.298Z,42.40
2023-05-25T21:41:38.786Z,42.39
2023-05-25T21:44:05.273Z,42.15
2023-05-25T21:46:32.819Z,42.19
2023-05-25T21:48:59.458Z,42.06
2023-05-25T21:51:25.906Z,42.33
2023-05-25T21:53:52.622Z,42.18
2023-05-25T21:56:18.977Z,42.34
2023-05-25T21:58:47.619Z,42.14
2023-05-25T22:01:14.039Z,42.26
2023-05-25T22:03:40.587Z,41.83
2023-05-25T22:06:08.879Z,42.03
2023-05-25T22:08:35.754Z,42.04
2023-05-25T22:11:02.198Z,42.10
2023-05-25T22:13:29.780Z,42.08
2023-05-25T22:15:56.208Z,41.74
2023-05-25T22:18:22.612Z,41.93
2023-05-25T22:20:49.087Z,41.91
2023-05-25T22:23:15.901Z,41.97
2023-05-25T22:25:42.516Z,42.06
2023-05-25T22:28:10.276Z,41.87
2023-05-25T22:30:36.767Z,41.90
2023-05-25T22:33:05.237Z,42.10
2023-05-25T22:35:31.725Z,42.19
2023-05-25T22:37:58.118Z,42.15
2023-05-25T22:40:25.125Z,41.95
2023-05-25T22:42:51.903Z,41.76
2023-05-25T22:45:19.948Z,41.93
2023-05-25T22:47:46.577Z,41.92
2023-05-25T22:50:13.361Z,42.39
2023-05-25T22:52:42.832Z,41.85
2023-05-25T22:55:09.767Z,41.76
2023-05-25T22:57:36.598Z,42.21
2023-05-25T23:00:05.536Z,42.28
2023-05-25T23:02:32.068Z,42.01
2023-05-25T23:04:58.786Z,42.25
2023-05-25T23:07:25.298Z,42.22
2023-05-25T23:09:51.957Z,42.38
2023-05-25T23:12:18.365Z,42.09
2023-05-25T23:14:45.043Z,41.94
2023-05-25T23:17:11.494Z,42.04
2023-05-25T23:19:38.625Z,42.02
2023-05-25T23:22:05.290Z,42.24
2023-05-25T23:24:31.720Z,42.36
2023-05-25T23:26:58.077Z,42.17
2023-05-25T23:29:24.441Z,42.70
2023-05-25T23:31:50.844Z,42.44
2023-05-25T23:34:17.316Z,42.40
2023-05-25T23:36:43.820Z,42.75
2023-05-25T23:39:10.342Z,42.42
2023-05-25T23:41:37.132Z,42.59
2023-05-25T23:44:03.762Z,43.00
2023-05-25T23:46:33.365Z,42.71
2023-05-25T23:48:59.796Z,42.82
2023-05-25T23:51:26.376Z,42.64
2023-05-25T23:53:52.760Z,43.08
2023-05-25T23:56:19.286Z,43.16
2023-05-25T23:58:45.889Z,42.70
